sensor_id;sensor_type;location;lat;lon;timestamp;P1;durP1;ratioP1;P2;durP2;ratioP2
4021;SDS011;2025;48.260;16.432;2022-07-18T00:00:00;8.05;;;1.23;;
4021;SDS011;2025;48.260;16.432;2022-07-18T00:02:28;3.35;;;1.70;;
4021;SDS011;2025;48.260;16.432;2022-07-18T00:04:55;2.40;;;1.27;;
4021;SDS011;2025;48.260;16.432;2022-07-18T00:07:22;2.20;;;1.20;;
4021;SDS011;2025;48.260;16.432;2022-07-18T00:09:49;1.95;;;1.30;;
4021;SDS011;2025;48.260;16.432;2022-07-18T00:12:16;1.92;;;1.50;;
4021;SDS011;2025;48.260;16.432;2022-07-18T00:14:43;1.77;;;1.10;;
4021;SDS011;2025;48.260;16.432;2022-07-18T00:17:11;4.45;;;1.40;;
4021;SDS011;2025;48.260;16.432;2022-07-18T00:19:39;2.75;;;1.27;;
4021;SDS011;2025;48.260;16.432;2022-07-18T00:22:06;5.13;;;1.20;;
4021;SDS011;2025;48.260;16.432;2022-07-18T00:24:33;1.33;;;1.10;;
4021;SDS011;2025;48.260;16.432;2022-07-18T00:27:02;3.42;;;1.30;;
4021;SDS011;2025;48.260;16.432;2022-07-18T00:29:32;2.65;;;1.15;;
4021;SDS011;2025;48.260;16.432;2022-07-18T00:32:01;6.07;;;1.40;;
4021;SDS011;2025;48.260;16.432;2022-07-18T00:34:28;4.60;;;1.40;;
4021;SDS011;2025;48.260;16.432;2022-07-18T00:36:57;8.57;;;1.50;;
4021;SDS011;2025;48.260;16.432;2022-07-18T00:39:24;7.25;;;1.67;;
4021;SDS011;2025;48.260;16.432;2022-07-18T00:41:51;3.70;;;1.40;;
4021;SDS011;2025;48.260;16.432;2022-07-18T00:44:18;4.70;;;1.52;;
4021;SDS011;2025;48.260;16.432;2022-07-18T00:46:48;9.38;;;1.58;;
4021;SDS011;2025;48.260;16.432;2022-07-18T00:49:15;3.70;;;1.17;;
4021;SDS011;2025;48.260;16.432;2022-07-18T00:51:43;2.15;;;1.70;;
4021;SDS011;2025;48.260;16.432;2022-07-18T00:54:11;3.83;;;1.52;;
4021;SDS011;2025;48.260;16.432;2022-07-18T00:56:38;4.45;;;1.55;;
4021;SDS011;2025;48.260;16.432;2022-07-18T00:59:06;3.10;;;1.40;;
4021;SDS011;2025;48.260;16.432;2022-07-18T01:01:33;2.35;;;1.63;;
4021;SDS011;2025;48.260;16.432;2022-07-18T01:04:08;2.50;;;1.50;;
4021;SDS011;2025;48.260;16.432;2022-07-18T01:06:37;3.97;;;1.55;;
4021;SDS011;2025;48.260;16.432;2022-07-18T01:09:04;1.75;;;1.42;;
4021;SDS011;2025;48.260;16.432;2022-07-18T01:11:33;1.50;;;1.40;;
4021;SDS011;2025;48.260;16.432;2022-07-18T01:14:01;4.35;;;1.48;;
4021;SDS011;2025;48.260;16.432;2022-07-18T01:16:29;1.85;;;1.33;;
4021;SDS011;2025;48.260;16.432;2022-07-18T01:18:56;2.55;;;1.55;;
4021;SDS011;2025;48.260;16.432;2022-07-18T01:21:25;3.35;;;1.70;;
4021;SDS011;2025;48.260;16.432;2022-07-18T01:23:52;4.57;;;1.45;;
4021;SDS011;2025;48.260;16.432;2022-07-18T01:26:19;3.20;;;1.38;;
4021;SDS011;2025;48.260;16.432;2022-07-18T01:28:47;3.30;;;1.60;;
4021;SDS011;2025;48.260;16.432;2022-07-18T01:31:14;2.72;;;1.52;;
4021;SDS011;2025;48.260;16.432;2022-07-18T01:33:41;1.52;;;1.40;;
4021;SDS011;2025;48.260;16.432;2022-07-18T01:36:08;5.30;;;1.60;;
4021;SDS011;2025;48.260;16.432;2022-07-18T01:38:37;1.65;;;1.40;;
4021;SDS011;2025;48.260;16.432;2022-07-18T01:41:04;1.48;;;1.38;;
4021;SDS011;2025;48.260;16.432;2022-07-18T01:43:32;3.13;;;1.67;;
4021;SDS011;2025;48.260;16.432;2022-07-18T01:46:03;4.38;;;1.70;;
4021;SDS011;2025;48.260;16.432;2022-07-18T01:48:30;2.58;;;1.58;;
4021;SDS011;2025;48.260;16.432;2022-07-18T01:50:57;5.68;;;1.45;;
4021;SDS011;2025;48.260;16.432;2022-07-18T01:53:24;4.85;;;1.70;;
4021;SDS011;2025;48.260;16.432;2022-07-18T01:55:52;1.88;;;1.60;;
4021;SDS011;2025;48.260;16.432;2022-07-18T01:58:19;1.88;;;1.60;;
4021;SDS011;2025;48.260;16.432;2022-07-18T02:00:46;5.38;;;1.60;;
4021;SDS011;2025;48.260;16.432;2022-07-18T02:03:13;1.70;;;1.60;;
4021;SDS011;2025;48.260;16.432;2022-07-18T02:05:40;4.38;;;2.53;;
4021;SDS011;2025;48.260;16.432;2022-07-18T02:08:07;1.67;;;1.23;;
4021;SDS011;2025;48.260;16.432;2022-07-18T02:10:34;2.38;;;1.95;;
4021;SDS011;2025;48.260;16.432;2022-07-18T02:13:03;2.83;;;1.60;;
4021;SDS011;2025;48.260;16.432;2022-07-18T02:15:31;4.72;;;1.30;;
4021;SDS011;2025;48.260;16.432;2022-07-18T02:17:58;3.30;;;1.77;;
4021;SDS011;2025;48.260;16.432;2022-07-18T02:20:25;1.58;;;1.30;;
4021;SDS011;2025;48.260;16.432;2022-07-18T02:22:52;4.18;;;1.50;;
4021;SDS011;2025;48.260;16.432;2022-07-18T02:25:19;4.15;;;1.45;;
4021;SDS011;2025;48.260;16.432;2022-07-18T02:27:45;4.78;;;1.77;;
4021;SDS011;2025;48.260;16.432;2022-07-18T02:30:14;2.47;;;1.58;;
4021;SDS011;2025;48.260;16.432;2022-07-18T02:32:41;3.13;;;1.40;;
4021;SDS011;2025;48.260;16.432;2022-07-18T02:35:08;2.45;;;1.52;;
4021;SDS011;2025;48.260;16.432;2022-07-18T02:37:35;2.72;;;1.65;;
4021;SDS011;2025;48.260;16.432;2022-07-18T02:40:04;3.10;;;1.70;;
4021;SDS011;2025;48.260;16.432;2022-07-18T02:42:33;1.80;;;1.70;;
4021;SDS011;2025;48.260;16.432;2022-07-18T02:45:00;6.65;;;1.90;;
4021;SDS011;2025;48.260;16.432;2022-07-18T02:47:28;1.58;;;1.48;;
4021;SDS011;2025;48.260;16.432;2022-07-18T02:49:55;5.15;;;2.03;;
4021;SDS011;2025;48.260;16.432;2022-07-18T02:52:22;5.22;;;1.77;;
4021;SDS011;2025;48.260;16.432;2022-07-18T02:54:49;2.78;;;1.77;;
4021;SDS011;2025;48.260;16.432;2022-07-18T02:57:16;3.45;;;1.60;;
4021;SDS011;2025;48.260;16.432;2022-07-18T02:59:43;2.72;;;1.50;;
4021;SDS011;2025;48.260;16.432;2022-07-18T03:02:10;5.60;;;2.08;;
4021;SDS011;2025;48.260;16.432;2022-07-18T03:04:39;2.97;;;1.50;;
4021;SDS011;2025;48.260;16.432;2022-07-18T03:07:06;4.00;;;2.00;;
4021;SDS011;2025;48.260;16.432;2022-07-18T03:09:33;4.18;;;1.80;;
4021;SDS011;2025;48.260;16.432;2022-07-18T03:12:00;2.72;;;1.83;;
4021;SDS011;2025;48.260;16.432;2022-07-18T03:14:27;2.85;;;1.70;;
4021;SDS011;2025;48.260;16.432;2022-07-18T03:16:54;3.35;;;1.65;;
4021;SDS011;2025;48.260;16.432;2022-07-18T03:19:21;4.47;;;1.80;;
4021;SDS011;2025;48.260;16.432;2022-07-18T03:21:49;2.38;;;1.90;;
4021;SDS011;2025;48.260;16.432;2022-07-18T03:24:16;3.60;;;1.50;;
4021;SDS011;2025;48.260;16.432;2022-07-18T03:26:43;1.98;;;1.50;;
4021;SDS011;2025;48.260;16.432;2022-07-18T03:29:10;3.50;;;1.88;;
4021;SDS011;2025;48.260;16.432;2022-07-18T03:31:38;7.53;;;1.65;;
4021;SDS011;2025;48.260;16.432;2022-07-18T03:34:05;2.08;;;1.77;;
4021;SDS011;2025;48.260;16.432;2022-07-18T03:36:32;2.45;;;1.83;;
4021;SDS011;2025;48.260;16.432;2022-07-18T03:39:00;6.95;;;2.20;;
4021;SDS011;2025;48.260;16.432;2022-07-18T03:41:27;4.10;;;1.80;;
4021;SDS011;2025;48.260;16.432;2022-07-18T03:43:54;1.77;;;1.67;;
4021;SDS011;2025;48.260;16.432;2022-07-18T03:46:21;3.03;;;1.80;;
4021;SDS011;2025;48.260;16.432;2022-07-18T03:48:48;3.92;;;1.63;;
4021;SDS011;2025;48.260;16.432;2022-07-18T03:51:16;4.53;;;1.95;;
4021;SDS011;2025;48.260;16.432;2022-07-18T03:53:43;3.20;;;2.13;;
4021;SDS011;2025;48.260;16.432;2022-07-18T03:56:11;3.05;;;1.67;;
4021;SDS011;2025;48.260;16.432;2022-07-18T03:58:38;3.00;;;2.17;;
4021;SDS011;2025;48.260;16.432;2022-07-18T04:01:05;2.45;;;1.90;;
4021;SDS011;2025;48.260;16.432;2022-07-18T04:03:32;3.88;;;1.80;;
4021;SDS011;2025;48.260;16.432;2022-07-18T04:05:59;1.92;;;1.75;;
4021;SDS011;2025;48.260;16.432;2022-07-18T04:08:27;7.95;;;3.05;;
4021;SDS011;2025;48.260;16.432;2022-07-18T04:10:54;3.88;;;2.03;;
4021;SDS011;2025;48.260;16.432;2022-07-18T04:13:22;2.65;;;1.88;;
4021;SDS011;2025;48.260;16.432;2022-07-18T04:15:49;2.92;;;1.83;;
4021;SDS011;2025;48.260;16.432;2022-07-18T04:18:16;2.63;;;1.90;;
4021;SDS011;2025;48.260;16.432;2022-07-18T04:20:43;6.97;;;1.98;;
4021;SDS011;2025;48.260;16.432;2022-07-18T04:23:10;2.30;;;2.10;;
4021;SDS011;2025;48.260;16.432;2022-07-18T04:25:38;2.03;;;1.85;;
4021;SDS011;2025;48.260;16.432;2022-07-18T04:28:06;9.57;;;2.03;;
4021;SDS011;2025;48.260;16.432;2022-07-18T04:30:36;4.03;;;1.85;;
4021;SDS011;2025;48.260;16.432;2022-07-18T04:33:03;2.42;;;2.22;;
4021;SDS011;2025;48.260;16.432;2022-07-18T04:35:31;6.20;;;2.20;;
4021;SDS011;2025;48.260;16.432;2022-07-18T04:38:01;7.00;;;1.98;;
4021;SDS011;2025;48.260;16.432;2022-07-18T04:40:28;8.18;;;2.42;;
4021;SDS011;2025;48.260;16.432;2022-07-18T04:42:56;4.20;;;2.08;;
4021;SDS011;2025;48.260;16.432;2022-07-18T04:45:23;5.05;;;2.10;;
4021;SDS011;2025;48.260;16.432;2022-07-18T04:47:51;5.30;;;2.20;;
4021;SDS011;2025;48.260;16.432;2022-07-18T04:50:20;5.90;;;2.17;;
4021;SDS011;2025;48.260;16.432;2022-07-18T04:52:48;4.53;;;2.10;;
4021;SDS011;2025;48.260;16.432;2022-07-18T04:55:15;2.85;;;1.92;;
4021;SDS011;2025;48.260;16.432;2022-07-18T04:57:44;5.18;;;2.20;;
4021;SDS011;2025;48.260;16.432;2022-07-18T05:00:12;3.08;;;2.05;;
4021;SDS011;2025;48.260;16.432;2022-07-18T05:02:40;7.40;;;2.13;;
4021;SDS011;2025;48.260;16.432;2022-07-18T05:05:10;5.90;;;1.90;;
4021;SDS011;2025;48.260;16.432;2022-07-18T05:07:37;9.60;;;2.20;;
4021;SDS011;2025;48.260;16.432;2022-07-18T05:10:05;4.10;;;2.13;;
4021;SDS011;2025;48.260;16.432;2022-07-18T05:12:34;5.18;;;1.92;;
4021;SDS011;2025;48.260;16.432;2022-07-18T05:15:01;5.45;;;1.90;;
4021;SDS011;2025;48.260;16.432;2022-07-18T05:17:30;11.43;;;2.10;;
4021;SDS011;2025;48.260;16.432;2022-07-18T05:19:57;6.00;;;2.13;;
4021;SDS011;2025;48.260;16.432;2022-07-18T05:22:25;7.43;;;2.03;;
4021;SDS011;2025;48.260;16.432;2022-07-18T05:24:52;8.95;;;2.00;;
4021;SDS011;2025;48.260;16.432;2022-07-18T05:27:19;6.10;;;2.28;;
4021;SDS011;2025;48.260;16.432;2022-07-18T05:29:46;9.90;;;1.98;;
4021;SDS011;2025;48.260;16.432;2022-07-18T05:32:13;7.93;;;2.03;;
4021;SDS011;2025;48.260;16.432;2022-07-18T05:34:40;5.47;;;2.15;;
4021;SDS011;2025;48.260;16.432;2022-07-18T05:37:07;7.18;;;2.10;;
4021;SDS011;2025;48.260;16.432;2022-07-18T05:39:35;9.18;;;2.05;;
4021;SDS011;2025;48.260;16.432;2022-07-18T05:42:03;19.17;;;2.85;;
4021;SDS011;2025;48.260;16.432;2022-07-18T05:44:30;11.75;;;2.30;;
4021;SDS011;2025;48.260;16.432;2022-07-18T05:46:57;11.32;;;2.50;;
4021;SDS011;2025;48.260;16.432;2022-07-18T05:49:24;15.85;;;2.58;;
4021;SDS011;2025;48.260;16.432;2022-07-18T05:51:51;12.27;;;2.75;;
4021;SDS011;2025;48.260;16.432;2022-07-18T05:54:18;20.77;;;2.80;;
4021;SDS011;2025;48.260;16.432;2022-07-18T05:56:48;21.23;;;3.17;;
4021;SDS011;2025;48.260;16.432;2022-07-18T05:59:16;10.48;;;2.10;;
4021;SDS011;2025;48.260;16.432;2022-07-18T06:01:44;19.33;;;2.45;;
4021;SDS011;2025;48.260;16.432;2022-07-18T06:04:11;6.82;;;1.80;;
4021;SDS011;2025;48.260;16.432;2022-07-18T06:06:39;17.75;;;1.90;;
4021;SDS011;2025;48.260;16.432;2022-07-18T06:09:06;22.05;;;2.33;;
4021;SDS011;2025;48.260;16.432;2022-07-18T06:11:34;14.20;;;2.00;;
4021;SDS011;2025;48.260;16.432;2022-07-18T06:14:03;8.95;;;1.98;;
4021;SDS011;2025;48.260;16.432;2022-07-18T06:16:31;6.35;;;1.73;;
4021;SDS011;2025;48.260;16.432;2022-07-18T06:18:58;16.90;;;1.90;;
4021;SDS011;2025;48.260;16.432;2022-07-18T06:21:25;10.02;;;1.77;;
4021;SDS011;2025;48.260;16.432;2022-07-18T06:23:52;10.93;;;1.40;;
4021;SDS011;2025;48.260;16.432;2022-07-18T06:26:19;8.32;;;1.27;;
4021;SDS011;2025;48.260;16.432;2022-07-18T06:28:47;5.63;;;1.50;;
4021;SDS011;2025;48.260;16.432;2022-07-18T06:31:15;6.60;;;1.40;;
4021;SDS011;2025;48.260;16.432;2022-07-18T06:33:42;5.03;;;1.27;;
4021;SDS011;2025;48.260;16.432;2022-07-18T06:36:09;4.13;;;1.60;;
4021;SDS011;2025;48.260;16.432;2022-07-18T06:38:38;4.82;;;1.60;;
4021;SDS011;2025;48.260;16.432;2022-07-18T06:41:06;2.92;;;1.20;;
4021;SDS011;2025;48.260;16.432;2022-07-18T06:43:33;9.10;;;1.70;;
4021;SDS011;2025;48.260;16.432;2022-07-18T06:46:00;10.93;;;1.52;;
4021;SDS011;2025;48.260;16.432;2022-07-18T06:48:28;5.38;;;1.45;;
4021;SDS011;2025;48.260;16.432;2022-07-18T06:50:58;7.43;;;1.20;;
4021;SDS011;2025;48.260;16.432;2022-07-18T06:53:26;5.53;;;1.70;;
4021;SDS011;2025;48.260;16.432;2022-07-18T06:55:54;8.70;;;1.55;;
4021;SDS011;2025;48.260;16.432;2022-07-18T06:58:21;7.85;;;1.80;;
4021;SDS011;2025;48.260;16.432;2022-07-18T07:00:48;7.68;;;1.67;;
4021;SDS011;2025;48.260;16.432;2022-07-18T07:03:15;14.95;;;1.80;;
4021;SDS011;2025;48.260;16.432;2022-07-18T07:05:44;9.68;;;1.73;;
4021;SDS011;2025;48.260;16.432;2022-07-18T07:08:11;6.78;;;1.70;;
4021;SDS011;2025;48.260;16.432;2022-07-18T07:10:38;7.82;;;1.70;;
4021;SDS011;2025;48.260;16.432;2022-07-18T07:13:05;7.93;;;1.50;;
4021;SDS011;2025;48.260;16.432;2022-07-18T07:15:32;9.52;;;1.92;;
4021;SDS011;2025;48.260;16.432;2022-07-18T07:17:59;6.50;;;1.85;;
4021;SDS011;2025;48.260;16.432;2022-07-18T07:20:26;12.15;;;1.83;;
4021;SDS011;2025;48.260;16.432;2022-07-18T07:22:55;10.80;;;2.00;;
4021;SDS011;2025;48.260;16.432;2022-07-18T07:25:24;17.40;;;2.38;;
4021;SDS011;2025;48.260;16.432;2022-07-18T07:27:51;16.25;;;1.70;;
4021;SDS011;2025;48.260;16.432;2022-07-18T07:30:19;15.07;;;1.85;;
4021;SDS011;2025;48.260;16.432;2022-07-18T07:32:46;10.35;;;1.77;;
4021;SDS011;2025;48.260;16.432;2022-07-18T07:35:15;12.70;;;1.60;;
4021;SDS011;2025;48.260;16.432;2022-07-18T07:37:45;13.65;;;1.60;;
4021;SDS011;2025;48.260;16.432;2022-07-18T07:40:14;15.95;;;1.60;;
4021;SDS011;2025;48.260;16.432;2022-07-18T07:42:42;7.03;;;1.48;;
4021;SDS011;2025;48.260;16.432;2022-07-18T07:45:10;6.88;;;1.40;;
4021;SDS011;2025;48.260;16.432;2022-07-18T07:47:38;12.05;;;1.60;;
4021;SDS011;2025;48.260;16.432;2022-07-18T07:50:06;9.65;;;1.45;;
4021;SDS011;2025;48.260;16.432;2022-07-18T07:52:35;8.25;;;1.70;;
4021;SDS011;2025;48.260;16.432;2022-07-18T07:55:02;6.70;;;2.03;;
4021;SDS011;2025;48.260;16.432;2022-07-18T07:57:31;12.65;;;1.77;;
4021;SDS011;2025;48.260;16.432;2022-07-18T08:00:01;6.75;;;1.48;;
4021;SDS011;2025;48.260;16.432;2022-07-18T08:02:49;12.52;;;1.60;;
4021;SDS011;2025;48.260;16.432;2022-07-18T08:05:17;7.53;;;1.50;;
4021;SDS011;2025;48.260;16.432;2022-07-18T08:07:44;14.65;;;2.10;;
4021;SDS011;2025;48.260;16.432;2022-07-18T08:10:11;7.88;;;1.77;;
4021;SDS011;2025;48.260;16.432;2022-07-18T08:12:39;8.73;;;1.38;;
4021;SDS011;2025;48.260;16.432;2022-07-18T08:15:06;11.55;;;1.67;;
4021;SDS011;2025;48.260;16.432;2022-07-18T08:17:34;11.80;;;1.70;;
4021;SDS011;2025;48.260;16.432;2022-07-18T08:20:01;9.45;;;1.45;;
4021;SDS011;2025;48.260;16.432;2022-07-18T08:22:29;14.57;;;1.70;;
4021;SDS011;2025;48.260;16.432;2022-07-18T08:24:56;13.00;;;1.77;;
4021;SDS011;2025;48.260;16.432;2022-07-18T08:27:23;10.23;;;1.67;;
4021;SDS011;2025;48.260;16.432;2022-07-18T08:29:51;8.85;;;1.50;;
4021;SDS011;2025;48.260;16.432;2022-07-18T08:32:18;7.78;;;1.52;;
4021;SDS011;2025;48.260;16.432;2022-07-18T08:34:45;11.35;;;1.50;;
4021;SDS011;2025;48.260;16.432;2022-07-18T08:37:12;8.95;;;1.75;;
4021;SDS011;2025;48.260;16.432;2022-07-18T08:39:39;9.65;;;1.10;;
4021;SDS011;2025;48.260;16.432;2022-07-18T08:42:06;11.93;;;1.30;;
4021;SDS011;2025;48.260;16.432;2022-07-18T08:44:34;12.43;;;1.80;;
4021;SDS011;2025;48.260;16.432;2022-07-18T08:47:05;67.28;;;5.10;;
4021;SDS011;2025;48.260;16.432;2022-07-18T08:49:35;13.73;;;1.42;;
4021;SDS011;2025;48.260;16.432;2022-07-18T08:52:02;7.38;;;1.30;;
4021;SDS011;2025;48.260;16.432;2022-07-18T08:54:31;25.25;;;2.45;;
4021;SDS011;2025;48.260;16.432;2022-07-18T08:56:58;11.45;;;1.52;;
4021;SDS011;2025;48.260;16.432;2022-07-18T08:59:25;7.30;;;1.40;;
4021;SDS011;2025;48.260;16.432;2022-07-18T09:01:51;5.30;;;1.08;;
4021;SDS011;2025;48.260;16.432;2022-07-18T09:04:32;9.38;;;1.23;;
4021;SDS011;2025;48.260;16.432;2022-07-18T09:07:00;12.13;;;1.30;;
4021;SDS011;2025;48.260;16.432;2022-07-18T09:09:28;3.20;;;1.10;;
4021;SDS011;2025;48.260;16.432;2022-07-18T09:11:56;6.70;;;1.05;;
4021;SDS011;2025;48.260;16.432;2022-07-18T09:14:28;7.28;;;1.40;;
4021;SDS011;2025;48.260;16.432;2022-07-18T09:17:00;4.47;;;1.35;;
4021;SDS011;2025;48.260;16.432;2022-07-18T09:19:28;3.88;;;1.10;;
4021;SDS011;2025;48.260;16.432;2022-07-18T09:22:03;8.20;;;1.27;;
4021;SDS011;2025;48.260;16.432;2022-07-18T09:24:48;8.10;;;1.50;;
4021;SDS011;2025;48.260;16.432;2022-07-18T09:27:23;6.25;;;1.33;;
4021;SDS011;2025;48.260;16.432;2022-07-18T09:30:09;7.38;;;1.30;;
4021;SDS011;2025;48.260;16.432;2022-07-18T09:32:43;6.93;;;1.50;;
4021;SDS011;2025;48.260;16.432;2022-07-18T09:35:12;10.43;;;1.25;;
4021;SDS011;2025;48.260;16.432;2022-07-18T09:37:41;4.25;;;1.42;;
4021;SDS011;2025;48.260;16.432;2022-07-18T09:40:22;11.00;;;1.60;;
4021;SDS011;2025;48.260;16.432;2022-07-18T09:42:52;9.90;;;1.73;;
4021;SDS011;2025;48.260;16.432;2022-07-18T09:45:24;12.82;;;1.48;;
4021;SDS011;2025;48.260;16.432;2022-07-18T09:47:52;12.48;;;1.38;;
4021;SDS011;2025;48.260;16.432;2022-07-18T09:50:22;8.20;;;1.25;;
4021;SDS011;2025;48.260;16.432;2022-07-18T09:55:30;6.00;;;1.35;;
4021;SDS011;2025;48.260;16.432;2022-07-18T09:57:58;10.48;;;1.40;;
4021;SDS011;2025;48.260;16.432;2022-07-18T10:00:35;7.28;;;1.20;;
4021;SDS011;2025;48.260;16.432;2022-07-18T10:03:05;2.78;;;1.05;;
4021;SDS011;2025;48.260;16.432;2022-07-18T10:05:33;8.07;;;1.40;;
4021;SDS011;2025;48.260;16.432;2022-07-18T10:08:04;5.68;;;1.30;;
4021;SDS011;2025;48.260;16.432;2022-07-18T10:10:36;4.47;;;1.40;;
4021;SDS011;2025;48.260;16.432;2022-07-18T10:13:04;10.50;;;1.27;;
4021;SDS011;2025;48.260;16.432;2022-07-18T10:15:32;2.67;;;1.30;;
4021;SDS011;2025;48.260;16.432;2022-07-18T10:18:00;7.15;;;1.88;;
4021;SDS011;2025;48.260;16.432;2022-07-18T10:20:30;7.28;;;1.48;;
4021;SDS011;2025;48.260;16.432;2022-07-18T10:23:01;3.83;;;1.05;;
4021;SDS011;2025;48.260;16.432;2022-07-18T10:25:35;9.43;;;1.20;;
4021;SDS011;2025;48.260;16.432;2022-07-18T10:28:06;6.85;;;1.50;;
4021;SDS011;2025;48.260;16.432;2022-07-18T10:30:36;5.53;;;1.35;;
4021;SDS011;2025;48.260;16.432;2022-07-18T10:36:04;7.63;;;1.20;;
4021;SDS011;2025;48.260;16.432;2022-07-18T10:38:34;6.38;;;1.27;;
4021;SDS011;2025;48.260;16.432;2022-07-18T10:41:02;9.30;;;1.00;;
4021;SDS011;2025;48.260;16.432;2022-07-18T10:43:35;3.15;;;1.10;;
4021;SDS011;2025;48.260;16.432;2022-07-18T10:46:04;4.80;;;1.10;;
4021;SDS011;2025;48.260;16.432;2022-07-18T10:51:32;3.35;;;1.13;;
4021;SDS011;2025;48.260;16.432;2022-07-18T10:54:08;4.75;;;1.30;;
4021;SDS011;2025;48.260;16.432;2022-07-18T10:59:36;7.50;;;1.33;;
4021;SDS011;2025;48.260;16.432;2022-07-18T11:02:05;7.72;;;1.08;;
4021;SDS011;2025;48.260;16.432;2022-07-18T11:04:37;3.35;;;0.85;;
4021;SDS011;2025;48.260;16.432;2022-07-18T11:07:08;9.73;;;1.30;;
4021;SDS011;2025;48.260;16.432;2022-07-18T11:09:39;6.78;;;1.05;;
4021;SDS011;2025;48.260;16.432;2022-07-18T11:15:09;8.38;;;1.00;;
4021;SDS011;2025;48.260;16.432;2022-07-18T11:17:54;3.78;;;1.10;;
4021;SDS011;2025;48.260;16.432;2022-07-18T11:20:39;6.32;;;1.00;;
4021;SDS011;2025;48.260;16.432;2022-07-18T11:23:15;3.30;;;1.10;;
4021;SDS011;2025;48.260;16.432;2022-07-18T11:25:45;8.25;;;1.08;;
4021;SDS011;2025;48.260;16.432;2022-07-18T11:28:13;7.85;;;1.10;;
4021;SDS011;2025;48.260;16.432;2022-07-18T11:30:41;6.18;;;1.25;;
4021;SDS011;2025;48.260;16.432;2022-07-18T11:33:22;6.22;;;1.27;;
4021;SDS011;2025;48.260;16.432;2022-07-18T11:35:50;6.30;;;0.98;;
4021;SDS011;2025;48.260;16.432;2022-07-18T11:38:27;4.50;;;1.20;;
4021;SDS011;2025;48.260;16.432;2022-07-18T11:40:56;8.25;;;1.00;;
4021;SDS011;2025;48.260;16.432;2022-07-18T11:43:23;3.78;;;0.93;;
4021;SDS011;2025;48.260;16.432;2022-07-18T11:46:01;6.03;;;1.08;;
4021;SDS011;2025;48.260;16.432;2022-07-18T11:48:29;3.90;;;1.20;;
4021;SDS011;2025;48.260;16.432;2022-07-18T11:50:57;2.70;;;0.90;;
4021;SDS011;2025;48.260;16.432;2022-07-18T11:53:24;2.42;;;1.40;;
4021;SDS011;2025;48.260;16.432;2022-07-18T11:55:52;4.90;;;1.00;;
4021;SDS011;2025;48.260;16.432;2022-07-18T11:58:21;4.10;;;1.17;;
4021;SDS011;2025;48.260;16.432;2022-07-18T12:00:48;5.72;;;1.10;;
4021;SDS011;2025;48.260;16.432;2022-07-18T12:03:17;7.85;;;1.20;;
4021;SDS011;2025;48.260;16.432;2022-07-18T12:05:45;8.45;;;0.98;;
4021;SDS011;2025;48.260;16.432;2022-07-18T12:08:24;5.72;;;1.08;;
4021;SDS011;2025;48.260;16.432;2022-07-18T12:11:02;9.93;;;1.15;;
4021;SDS011;2025;48.260;16.432;2022-07-18T12:13:42;3.53;;;0.93;;
4021;SDS011;2025;48.260;16.432;2022-07-18T12:16:26;4.88;;;0.80;;
4021;SDS011;2025;48.260;16.432;2022-07-18T12:18:58;8.75;;;1.20;;
4021;SDS011;2025;48.260;16.432;2022-07-18T12:21:40;5.57;;;1.00;;
4021;SDS011;2025;48.260;16.432;2022-07-18T12:24:19;2.72;;;0.93;;
4021;SDS011;2025;48.260;16.432;2022-07-18T12:27:06;4.07;;;0.90;;
4021;SDS011;2025;48.260;16.432;2022-07-18T12:32:42;5.90;;;1.33;;
4021;SDS011;2025;48.260;16.432;2022-07-18T12:35:12;17.85;;;1.55;;
4021;SDS011;2025;48.260;16.432;2022-07-18T12:37:41;4.40;;;1.20;;
4021;SDS011;2025;48.260;16.432;2022-07-18T12:40:18;11.15;;;1.23;;
4021;SDS011;2025;48.260;16.432;2022-07-18T12:42:46;9.43;;;0.98;;
4021;SDS011;2025;48.260;16.432;2022-07-18T12:45:15;3.63;;;1.10;;
4021;SDS011;2025;48.260;16.432;2022-07-18T12:47:42;4.00;;;1.00;;
4021;SDS011;2025;48.260;16.432;2022-07-18T12:50:09;1.58;;;0.90;;
4021;SDS011;2025;48.260;16.432;2022-07-18T12:52:38;4.88;;;0.85;;
4021;SDS011;2025;48.260;16.432;2022-07-18T12:55:05;1.77;;;0.80;;
4021;SDS011;2025;48.260;16.432;2022-07-18T12:57:32;2.95;;;1.00;;
4021;SDS011;2025;48.260;16.432;2022-07-18T13:00:01;1.77;;;1.00;;
4021;SDS011;2025;48.260;16.432;2022-07-18T13:02:31;5.53;;;1.23;;
4021;SDS011;2025;48.260;16.432;2022-07-18T13:04:58;0.70;;;0.70;;
4021;SDS011;2025;48.260;16.432;2022-07-18T13:07:25;5.10;;;0.90;;
4021;SDS011;2025;48.260;16.432;2022-07-18T13:09:52;1.38;;;0.80;;
4021;SDS011;2025;48.260;16.432;2022-07-18T13:12:19;1.77;;;1.00;;
4021;SDS011;2025;48.260;16.432;2022-07-18T13:14:47;3.58;;;0.80;;
4021;SDS011;2025;48.260;16.432;2022-07-18T13:17:14;1.75;;;0.80;;
4021;SDS011;2025;48.260;16.432;2022-07-18T13:19:42;1.00;;;0.70;;
4021;SDS011;2025;48.260;16.432;2022-07-18T13:22:11;3.92;;;1.25;;
4021;SDS011;2025;48.260;16.432;2022-07-18T13:24:38;3.55;;;0.70;;
4021;SDS011;2025;48.260;16.432;2022-07-18T13:27:05;4.65;;;0.70;;
4021;SDS011;2025;48.260;16.432;2022-07-18T13:29:32;1.02;;;0.90;;
4021;SDS011;2025;48.260;16.432;2022-07-18T13:31:59;0.70;;;0.70;;
4021;SDS011;2025;48.260;16.432;2022-07-18T13:34:28;2.47;;;0.60;;
4021;SDS011;2025;48.260;16.432;2022-07-18T13:36:56;2.72;;;0.60;;
4021;SDS011;2025;48.260;16.432;2022-07-18T13:39:23;0.88;;;0.63;;
4021;SDS011;2025;48.260;16.432;2022-07-18T13:41:50;4.72;;;0.75;;
4021;SDS011;2025;48.260;16.432;2022-07-18T13:44:17;1.13;;;0.75;;
4021;SDS011;2025;48.260;16.432;2022-07-18T13:46:44;2.42;;;0.70;;
4021;SDS011;2025;48.260;16.432;2022-07-18T13:49:11;1.75;;;0.80;;
4021;SDS011;2025;48.260;16.432;2022-07-18T13:51:41;2.25;;;0.70;;
4021;SDS011;2025;48.260;16.432;2022-07-18T13:54:09;4.25;;;0.70;;
4021;SDS011;2025;48.260;16.432;2022-07-18T13:56:36;5.32;;;0.80;;
4021;SDS011;2025;48.260;16.432;2022-07-18T13:59:06;2.58;;;0.88;;
4021;SDS011;2025;48.260;16.432;2022-07-18T14:01:47;1.52;;;0.70;;
4021;SDS011;2025;48.260;16.432;2022-07-18T14:04:15;1.05;;;0.70;;
4021;SDS011;2025;48.260;16.432;2022-07-18T14:06:43;3.33;;;0.90;;
4021;SDS011;2025;48.260;16.432;2022-07-18T14:09:12;2.88;;;0.60;;
4021;SDS011;2025;48.260;16.432;2022-07-18T14:11:39;3.38;;;0.60;;
4021;SDS011;2025;48.260;16.432;2022-07-18T14:14:06;1.52;;;0.80;;
4021;SDS011;2025;48.260;16.432;2022-07-18T14:16:32;0.68;;;0.68;;
4021;SDS011;2025;48.260;16.432;2022-07-18T14:19:00;3.40;;;0.70;;
4021;SDS011;2025;48.260;16.432;2022-07-18T14:21:27;3.28;;;0.80;;
4021;SDS011;2025;48.260;16.432;2022-07-18T14:23:54;0.80;;;0.80;;
4021;SDS011;2025;48.260;16.432;2022-07-18T14:26:22;1.00;;;0.70;;
4021;SDS011;2025;48.260;16.432;2022-07-18T14:28:50;4.18;;;0.80;;
4021;SDS011;2025;48.260;16.432;2022-07-18T14:31:17;1.13;;;0.90;;
4021;SDS011;2025;48.260;16.432;2022-07-18T14:33:44;1.42;;;0.73;;
4021;SDS011;2025;48.260;16.432;2022-07-18T14:36:13;1.15;;;0.60;;
4021;SDS011;2025;48.260;16.432;2022-07-18T14:38:40;2.55;;;1.00;;
4021;SDS011;2025;48.260;16.432;2022-07-18T14:41:07;2.95;;;0.82;;
4021;SDS011;2025;48.260;16.432;2022-07-18T14:43:35;0.88;;;0.80;;
4021;SDS011;2025;48.260;16.432;2022-07-18T14:46:02;4.18;;;0.93;;
4021;SDS011;2025;48.260;16.432;2022-07-18T14:48:29;5.65;;;1.02;;
4021;SDS011;2025;48.260;16.432;2022-07-18T14:50:57;4.13;;;0.60;;
4021;SDS011;2025;48.260;16.432;2022-07-18T14:53:24;3.38;;;0.73;;
4021;SDS011;2025;48.260;16.432;2022-07-18T14:55:51;1.10;;;0.68;;
4021;SDS011;2025;48.260;16.432;2022-07-18T14:58:18;2.80;;;0.82;;
4021;SDS011;2025;48.260;16.432;2022-07-18T15:00:46;7.93;;;0.80;;
4021;SDS011;2025;48.260;16.432;2022-07-18T15:03:13;2.67;;;0.95;;
4021;SDS011;2025;48.260;16.432;2022-07-18T15:05:40;4.00;;;0.70;;
4021;SDS011;2025;48.260;16.432;2022-07-18T15:08:07;3.58;;;0.73;;
4021;SDS011;2025;48.260;16.432;2022-07-18T15:10:34;4.20;;;0.93;;
4021;SDS011;2025;48.260;16.432;2022-07-18T15:13:01;4.25;;;0.90;;
4021;SDS011;2025;48.260;16.432;2022-07-18T15:15:28;2.15;;;0.80;;
4021;SDS011;2025;48.260;16.432;2022-07-18T15:17:56;3.80;;;0.90;;
4021;SDS011;2025;48.260;16.432;2022-07-18T15:20:23;2.42;;;0.93;;
4021;SDS011;2025;48.260;16.432;2022-07-18T15:22:50;1.17;;;0.77;;
4021;SDS011;2025;48.260;16.432;2022-07-18T15:25:17;5.10;;;0.80;;